Data for 10/15/2010

Time Sea-Level Adjusted Pressure Absolute Pressure Temperature Relative Humidity Dew Point   
(mb) (inHg) (mb) (inHg) (C) (F) (%) (C) (F)
00:05 1020 30.12 849 25.07 11.8 53.3 30 -5.1 22.9
00:10 1020 30.12 849 25.07 11.8 53.2 32 -4.4 24
00:15 1020 30.12 849 25.07 11.1 52.1 34 -4 24.7
00:20 1020 30.12 849 25.07 10.7 51.2 33 -4.7 23.5
00:25 1020 30.12 849 25.07 10.6 51.1 34 -4.6 23.7
00:30 1020 30.12 849 25.07 10.3 50.6 34 -4.9 23.1
00:35 1020 30.12 849 25.07 10.2 50.3 36 -4.1 24.7
00:40 1020 30.12 849 25.07 10 49.9 35 -4.9 23.2
00:45 1020 30.12 849 25.07 10.1 50.2 35 -4.5 23.9
00:50 1020 30.12 849 25.07 9.9 49.7 36 -4.3 24.2
00:55 1020 30.12 849 25.07 9.7 49.5 35 -5.1 22.9
01:00 1020 30.12 849 25.07 9.9 49.7 36 -4.5 24
01:05 1020 30.12 849 25.07 9.3 48.7 37 -4.5 23.9
01:10 1020 30.12 849 25.07 8.6 47.5 39 -4.6 23.7
01:15 1020 30.12 849 25.07 9.3 48.7 33 -6.2 20.8
01:20 1020 30.12 849 25.07 10.4 50.7 32 -5.8 21.6
01:25 1020 30.12 849 25.07 10.3 50.5 33 -5.1 22.9
01:30 1020 30.12 849 25.07 9.7 49.4 33 -5.6 21.9
01:35 1020 30.12 849 25.07 10 49.9 32 -5.8 21.5
01:40 1020 30.12 849 25.07 10.2 50.3 33 -5.5 22.2
01:45 1020 30.12 849 25.07 9.9 49.9 35 -4.9 23.1
01:50 1020 30.12 849 25.07 9.9 49.8 32 -5.9 21.4
01:55 1020 30.12 849 25.07 10.1 50.2 33 -5.5 22
02:00 1020 30.12 849 25.07 9.9 49.8 32 -6 21.1
02:05 1020 30.12 849 25.07 10.1 50.2 34 -5.1 22.8
02:10 1020 30.12 849 25.07 9.6 49.3 33 -5.8 21.5
02:15 1020 30.12 849 25.07 9.8 49.6 32 -6.2 20.9
02:20 1020 30.12 849 25.07 10.3 50.5 30 -6.4 20.5
02:25 1020 30.12 849 25.07 10.9 51.7 29 -6.5 20.4
02:30 1020 30.12 849 25.07 11.3 52.4 29 -6.1 21
02:35 1020 30.12 849 25.07 11.1 51.9 30 -5.8 21.6
02:40 1020 30.12 849 25.07 10.6 51.1 31 -5.9 21.3
02:45 1020 30.12 849 25.07 10.3 50.6 32 -5.8 21.5
02:50 1020 30.12 849 25.07 10.2 50.4 32 -5.8 21.5
02:55 1020 30.12 849 25.07 10.4 50.6 31 -6.1 21.1
03:00 1020 30.12 849 25.07 10.6 51.2 31 -6 21.2
03:05 1020 30.12 849 25.07 10.4 50.6 33 -5.4 22.4
03:10 1020 30.12 849 25.07 9.8 49.6 33 -5.8 21.6
03:15 1020 30.12 849 25.07 9.9 49.8 32 -6 21.2
03:20 1020 30.12 849 25.07 9.9 49.7 33 -5.5 22.1
03:25 1020 30.12 849 25.07 9.2 48.5 36 -5.1 22.7
03:30 1020 30.12 849 25.07 8.2 46.7 41 -4.2 24.4
03:35 1020 30.12 849 25.07 7.8 46 40 -5.1 22.8
03:40 1019 30.09 849 25.07 9.1 48.3 34 -6.1 21
03:45 1019 30.09 849 25.07 9.3 48.7 33 -6.2 20.9
03:50 1019 30.09 849 25.07 10.3 50.5 28 -7.3 18.8
03:55 1019 30.09 849 25.07 10.9 51.7 30 -6 21.3
04:00 1019 30.09 849 25.07 10.8 51.4 29 -6.5 20.2
04:05 1019 30.09 849 25.07 11.3 52.3 29 -5.9 21.4
04:10 1020 30.12 849 25.07 9.1 48.4 39 -4.2 24.4
04:15 1020 30.12 849 25.07 7.4 45.3 37 -6.2 20.9
04:20 1020 30.12 849 25.07 8.6 47.4 30 -7.9 17.8
04:25 1020 30.12 849 25.07 10 49.9 29 -7.1 19.2
04:30 1020 30.12 849 25.07 10.8 51.4 26 -8 17.7
04:35 1019 30.09 849 25.07 11.4 52.6 26 -7.6 18.3
04:40 1019 30.09 849 25.07 11.6 53 26 -7.4 18.6
04:45 1019 30.09 849 25.07 11.8 53.2 25 -7.7 18.1
04:50 1019 30.09 848 25.04 11.8 53.2 26 -6.9 19.7
04:55 1019 30.09 848 25.04 10.9 51.6 28 -7 19.4
05:00 1019 30.09 848 25.04 11.2 52.1 27 -7.2 19.1
05:05 1019 30.09 848 25.04 11.3 52.3 26 -7.7 18.2
05:10 1019 30.09 848 25.04 12 53.6 24 -7.8 17.9
05:15 1019 30.09 848 25.04 12.2 54 25 -7.5 18.6
05:20 1019 30.09 848 25.04 12.7 54.9 23 -7.6 18.3
05:25 1019 30.09 848 25.04 12.6 54.8 24 -7.2 19.1
05:30 1019 30.09 848 25.04 13.3 55.9 19 -9.8 14.4
05:35 1019 30.09 848 25.04 14.6 58.3 19 -8.7 16.3
05:40 1019 30.09 848 25.04 14.3 57.7 20 -8.3 17.1
05:45 1019 30.09 848 25.04 14.3 57.7 19 -9.1 15.6
05:50 1019 30.09 848 25.04 15.3 59.5 18 -9.1 15.5
05:55 1019 30.09 848 25.04 15.1 59.1 18 -9.2 15.4
06:00 1019 30.09 848 25.04 15 58.9 19 -8.1 17.4
06:05 1019 30.09 848 25.04 14.3 57.7 20 -8.5 16.7
06:10 1019 30.09 848 25.04 13.9 57.1 22 -7.2 19
06:15 1019 30.09 848 25.04 13.5 56.2 22 -7.7 18.2
06:20 1019 30.09 848 25.04 13 55.5 24 -6.9 19.6
06:25 1019 30.09 848 25.04 12.9 55.1 22 -8.3 17.1
06:30 1019 30.09 848 25.04 14.2 57.6 20 -8.6 16.5
06:35 1019 30.09 848 25.04 14.7 58.4 20 -8.2 17.2
06:40 1018 30.06 848 25.04 14.4 57.9 22 -7 19.4
06:45 1018 30.06 848 25.04 13.4 56 26 -5.8 21.6
06:50 1018 30.06 848 25.04 12.8 55.1 26 -6.3 20.6
06:55 1018 30.06 848 25.04 12.7 54.8 25 -7 19.4
07:00 1018 30.06 848 25.04 12.6 54.6 25 -6.9 19.5
07:05 1018 30.06 848 25.04 12.2 53.9 25 -7.1 19.3
07:10 1018 30.06 847 25.01 12.2 53.9 26 -7 19.5
07:15 1018 30.06 847 25.01 12.1 53.8 26 -7 19.4
07:20 1018 30.06 847 25.01 12.7 54.9 25 -6.7 20
07:25 1018 30.06 847 25.01 13 55.3 26 -6.2 20.9
07:30 1018 30.06 847 25.01 13 55.3 26 -6.1 21.1
07:35 1018 30.06 847 25.01 13.1 55.5 26 -6.1 20.9
07:40 1018 30.06 847 25.01 14.5 58.1 23 -6.6 20.1
07:45 1018 30.06 847 25.01 15.3 59.6 23 -5.8 21.6
07:50 1018 30.06 847 25.01 15.3 59.6 23 -5.7 21.8
07:55 1018 30.06 847 25.01 15 59 24 -5.3 22.4
08:00 1018 30.06 847 25.01 14.8 58.7 24 -5.5 22.2
08:05 1018 30.06 847 25.01 15.1 59.2 24 -5.1 22.9
08:10 1018 30.06 847 25.01 14.8 58.6 25 -4.9 23.3
08:15 1018 30.06 847 25.01 15 59.1 25 -5 23
08:20 1018 30.06 847 25.01 15.3 59.5 25 -4.5 23.9
08:25 1018 30.06 847 25.01 15.6 60 24 -4.6 23.7
08:30 1018 30.06 847 25.01 16 60.7 23 -4.9 23.1
08:35 1018 30.06 847 25.01 16.5 61.7 23 -4.9 23.2
08:40 1018 30.06 848 25.04 16.8 62.3 23 -4.2 24.4
08:45 1018 30.06 848 25.04 16.7 62 24 -3.7 25.4
08:50 1018 30.06 848 25.04 16.6 61.9 24 -3.9 25
08:55 1018 30.06 848 25.04 16.7 62.1 23 -4.2 24.4
09:00 1018 30.06 848 25.04 16.7 62 24 -4.1 24.6
09:05 1018 30.06 848 25.04 16.6 61.8 24 -3.8 25.1
09:10 1018 30.06 848 25.04 16.5 61.7 24 -4 24.8
09:15 1018 30.06 848 25.04 16.6 61.9 24 -4 24.8
09:20 1018 30.06 848 25.04 16.9 62.5 23 -4 24.9
09:25 1018 30.06 848 25.04 16.9 62.5 24 -3.9 25
09:30 1018 30.06 848 25.04 16.9 62.3 24 -3.6 25.5
09:35 1018 30.06 848 25.04 17 62.6 24 -3.7 25.3
09:40 1018 30.06 848 25.04 17.3 63.1 24 -3.4 25.9
09:45 1018 30.06 848 25.04 17.3 63.2 23 -3.6 25.4
09:50 1018 30.06 848 25.04 17.5 63.6 24 -3.3 26.1
09:55 1018 30.06 848 25.04 17.8 64 24 -3.2 26.3
10:00 1019 30.09 848 25.04 18 64.5 23 -3.1 26.4
10:05 1019 30.09 848 25.04 18.4 65.1 22 -3.3 26
10:10 1019 30.09 848 25.04 18.7 65.7 23 -2.9 26.7
10:15 1019 30.09 848 25.04 19.1 66.3 22 -2.9 26.7
10:20 1019 30.09 848 25.04 19.6 67.3 21 -3.3 26.1
10:25 1018 30.06 848 25.04 19.9 67.8 21 -3.1 26.4
10:30 1018 30.06 848 25.04 19.6 67.2 21 -3 26.5
10:35 1018 30.06 848 25.04 19.4 66.9 21 -3.6 25.4
10:40 1018 30.06 848 25.04 19.7 67.5 20 -3.9 24.9
10:45 1018 30.06 848 25.04 20 67.9 21 -3 26.6
10:50 1018 30.06 848 25.04 19.7 67.5 20 -3.8 25.2
10:55 1018 30.06 847 25.01 19.8 67.6 20 -3.9 25
11:00 1018 30.06 847 25.01 20 67.9 19 -3.9 25
11:05 1018 30.06 847 25.01 20 68.1 20 -3.6 25.6
11:10 1018 30.06 847 25.01 19.8 67.7 20 -3.9 25
11:15 1018 30.06 847 25.01 19.6 67.2 20 -4.1 24.6
11:20 1018 30.06 847 25.01 19.3 66.7 20 -3.8 25.1
11:25 1018 30.06 847 25.01 19.1 66.5 21 -3.9 25
11:30 1018 30.06 847 25.01 18.9 66 20 -4.6 23.8
11:35 1018 30.06 847 25.01 19 66.3 20 -4.2 24.4
11:40 1018 30.06 847 25.01 19 66.3 21 -3.5 25.6
11:45 1018 30.06 847 25.01 19 66.3 22 -2.9 26.8
11:50 1018 30.06 847 25.01 18.8 65.9 22 -3.4 26
11:55 1018 30.06 847 25.01 18.9 66 21 -3.5 25.7
12:00 1018 30.06 847 25.01 19.2 66.5 21 -3.4 25.9
12:05 1018 30.06 847 25.01 19.3 66.8 19 -4.4 24
12:10 1018 30.06 847 25.01 19.7 67.4 19 -4.2 24.4
12:15 1018 30.06 847 25.01 19.8 67.7 21 -3.1 26.5
12:20 1018 30.06 847 25.01 19.7 67.4 21 -3 26.5
12:25 1018 30.06 847 25.01 19.5 67.1 21 -3.6 25.6
12:30 1018 30.06 847 25.01 19.3 66.8 21 -3.6 25.6
12:35 1018 30.06 847 25.01 19.2 66.5 21 -3.7 25.4
12:40 1018 30.06 847 25.01 18.8 65.9 21 -3.9 25
12:45 1018 30.06 847 25.01 19 66.1 21 -3.4 25.8
12:50 1018 30.06 847 25.01 19.3 66.8 21 -3.5 25.8
12:55 1018 30.06 847 25.01 19.3 66.7 20 -3.8 25.1
13:00 1018 30.06 847 25.01 19.3 66.8 21 -3.3 26.1
13:05 1018 30.06 847 25.01 19.3 66.7 22 -2.7 27.2
13:10 1018 30.06 847 25.01 19.5 67 21 -3.4 25.9
13:15 1018 30.06 847 25.01 19.7 67.4 22 -2.7 27.1
13:20 1018 30.06 847 25.01 20.2 68.3 20 -3.1 26.4
13:25 1018 30.06 847 25.01 20.1 68.2 20 -3.2 26.3
13:30 1018 30.06 847 25.01 19.9 67.8 20 -3.9 25
13:35 1018 30.06 847 25.01 19.6 67.3 22 -2.9 26.9
13:40 1018 30.06 847 25.01 19.7 67.5 21 -3.4 25.9
13:45 1017 30.03 847 25.01 19.5 67.1 21 -3.3 26
13:50 1017 30.03 847 25.01 19.5 67 21 -3.2 26.2
13:55 1017 30.03 847 25.01 19.4 66.9 21 -3.3 26
14:00 1017 30.03 847 25.01 19.4 67 22 -2.7 27.1
14:05 1017 30.03 847 25.01 19.4 66.8 20 -4.3 24.3
14:10 1017 30.03 847 25.01 19.2 66.6 22 -3 26.5
14:15 1017 30.03 846 24.98 19.4 66.9 22 -3 26.6
14:20 1017 30.03 846 24.98 19.8 67.6 20 -3.9 25.1
14:25 1017 30.03 846 24.98 19.7 67.5 20 -3.6 25.5
14:30 1017 30.03 846 24.98 19.8 67.6 21 -3.2 26.3
14:35 1017 30.03 846 24.98 20 68 21 -2.6 27.3
14:40 1017 30.03 846 24.98 19.8 67.7 22 -2.7 27.2
14:45 1017 30.03 846 24.98 20 68.1 21 -2.6 27.3
14:50 1017 30.03 846 24.98 19.6 67.2 22 -2.4 27.6
14:55 1017 30.03 846 24.98 19.5 67 21 -3.6 25.6
15:00 1017 30.03 846 24.98 19.5 67.1 20 -3.8 25.1
15:05 1017 30.03 846 24.98 19.6 67.3 20 -3.9 24.9
15:10 1017 30.03 846 24.98 19.7 67.4 22 -2.5 27.4
15:15 1017 30.03 846 24.98 19.6 67.2 21 -3.4 25.8
15:20 1017 30.03 846 24.98 19.6 67.3 20 -3.8 25.2
15:25 1017 30.03 847 25.01 19.5 67 21 -3.5 25.7
15:30 1017 30.03 847 25.01 19.4 66.8 21 -3.3 26.1
15:35 1017 30.03 847 25.01 19.3 66.8 20 -3.8 25.1
15:40 1018 30.06 847 25.01 19.3 66.7 20 -4.1 24.6
15:45 1018 30.06 847 25.01 19.1 66.4 22 -3.1 26.5
15:50 1018 30.06 847 25.01 18.7 65.7 23 -2.7 27.2
15:55 1018 30.06 847 25.01 18.5 65.4 24 -2.5 27.5
16:00 1018 30.06 847 25.01 18.4 65.2 24 -2.4 27.7
16:05 1018 30.06 847 25.01 18.3 65 24 -2.6 27.3
16:10 1018 30.06 847 25.01 18.3 64.9 25 -1.9 28.6
16:15 1018 30.06 847 25.01 18 64.4 26 -1.6 29.1
16:20 1018 30.06 847 25.01 17.8 64 25 -2.6 27.3
16:25 1018 30.06 847 25.01 17.9 64.1 26 -1.9 28.7
16:30 1018 30.06 847 25.01 17.7 63.9 28 -1 30.2
16:35 1018 30.06 847 25.01 17.6 63.7 28 -0.9 30.5
16:40 1018 30.06 847 25.01 17.6 63.8 28 -0.8 30.5
16:45 1018 30.06 847 25.01 17.6 63.6 28 -1 30.2
16:50 1018 30.06 847 25.01 17.7 63.9 28 -1 30.3
16:55 1018 30.06 847 25.01 17.7 63.9 28 -1 30.2
17:00 1018 30.06 847 25.01 18 64.4 27 -1.1 30.1
17:05 1018 30.06 847 25.01 18.1 64.5 27 -1.3 29.6
17:10 1018 30.06 847 25.01 18.2 64.7 27 -1.2 29.8
17:15 1018 30.06 847 25.01 18.2 64.8 27 -0.9 30.4
17:20 1018 30.06 847 25.01 18 64.4 26 -1.4 29.5
17:25 1018 30.06 847 25.01 18 64.4 24 -2.5 27.6
17:30 1018 30.06 847 25.01 18 64.4 24 -2.5 27.5
17:35 1018 30.06 847 25.01 18 64.5 25 -2.2 28
17:40 1018 30.06 847 25.01 18 64.5 25 -2.3 27.8
17:45 1018 30.06 847 25.01 18.1 64.6 24 -2.7 27.1
17:50 1018 30.06 847 25.01 18.4 65.1 23 -3.1 26.4
17:55 1018 30.06 847 25.01 18.5 65.2 23 -3 26.6
18:00 1018 30.06 847 25.01 18.3 64.9 23 -3 26.6
18:05 1018 30.06 847 25.01 18.2 64.7 23 -3.1 26.4
18:10 1018 30.06 848 25.04 17.9 64.3 24 -2.8 27
18:15 1019 30.09 848 25.04 17.8 64 25 -2.6 27.4
18:20 1019 30.09 848 25.04 17.8 64 25 -2.3 27.8
18:25 1019 30.09 848 25.04 17.7 63.9 26 -2.1 28.2
18:30 1019 30.09 848 25.04 17.5 63.5 26 -2.3 27.9
18:35 1019 30.09 848 25.04 17.2 63 24 -3.3 26.1
18:40 1019 30.09 848 25.04 16.9 62.5 21 -5.2 22.6
18:45 1019 30.09 848 25.04 16.8 62.2 19 -6.7 19.9
18:50 1019 30.09 848 25.04 16.6 62 20 -6.2 20.8
18:55 1019 30.09 849 25.07 16.4 61.6 18 -7.7 18.2
19:00 1019 30.09 849 25.07 16.2 61.2 18 -8.1 17.4
19:05 1020 30.12 849 25.07 16.1 60.9 19 -7.6 18.3
19:10 1020 30.12 849 25.07 15.8 60.5 19 -7.8 17.9
19:15 1020 30.12 849 25.07 15.6 60.1 19 -7.6 18.3
19:20 1020 30.12 849 25.07 15.3 59.6 20 -7.7 18.1
19:25 1020 30.12 849 25.07 15.1 59.2 20 -7.7 18.1
19:30 1020 30.12 849 25.07 14.8 58.7 21 -7.5 18.6
19:35 1020 30.12 849 25.07 14.5 58.1 20 -7.9 17.8
19:40 1020 30.12 850 25.1 14.2 57.5 21 -7.7 18.2
19:45 1020 30.12 850 25.1 13.9 56.9 22 -7.2 19.1
19:50 1021 30.15 850 25.1 13.5 56.4 24 -6.4 20.6
19:55 1021 30.15 850 25.1 13.2 55.7 26 -6 21.2
20:00 1021 30.15 850 25.1 12.8 55.1 28 -5.3 22.4
20:05 1021 30.15 850 25.1 12.6 54.6 29 -4.9 23.1
20:10 1021 30.15 850 25.1 12.4 54.2 30 -4.5 23.9
20:15 1021 30.15 850 25.1 12.1 53.9 30 -4.7 23.5
20:20 1021 30.15 851 25.13 12.1 53.7 31 -4.7 23.6
20:25 1021 30.15 851 25.13 11.9 53.5 31 -4.5 23.9
20:30 1021 30.15 851 25.13 11.8 53.2 32 -4.5 24
20:35 1022 30.18 851 25.13 11.4 52.6 32 -4.6 23.7
20:40 1022 30.18 851 25.13 11.2 52.2 32 -4.7 23.6
20:45 1022 30.18 851 25.13 11.1 52 32 -4.8 23.4
20:50 1022 30.18 851 25.13 11.2 52.1 32 -5 23.1
20:55 1022 30.18 851 25.13 11.2 52.1 32 -5 23.1
21:00 1022 30.18 851 25.13 11.1 52 31 -5.2 22.7
21:05 1022 30.18 851 25.13 11.1 52.1 31 -5.2 22.6
21:10 1022 30.18 851 25.13 11 51.9 33 -4.7 23.6
21:15 1022 30.18 851 25.13 10.6 51 33 -5.1 22.8
21:20 1022 30.18 851 25.13 10.6 51.1 33 -5 23
21:25 1022 30.18 851 25.13 10.6 51.1 33 -5 23.1
21:30 1022 30.18 851 25.13 10.4 50.7 34 -4.7 23.5
21:35 1022 30.18 851 25.13 10.2 50.4 34 -4.8 23.3
21:40 1022 30.18 852 25.16 10.4 50.6 34 -4.6 23.6
21:45 1022 30.18 852 25.16 10.3 50.5 35 -4.4 24
21:50 1022 30.18 852 25.16 10.2 50.3 35 -4.5 24
21:55 1023 30.21 852 25.16 10.1 50.1 34 -5 23
22:00 1023 30.21 852 25.16 10 50.1 34 -5 22.9
22:05 1023 30.21 852 25.16 10 50 34 -5.3 22.5
22:10 1023 30.21 852 25.16 9.9 49.7 35 -4.7 23.5
22:15 1023 30.21 852 25.16 9.7 49.5 37 -4.4 24.2
22:20 1023 30.21 852 25.16 9.5 49.1 38 -4.2 24.4
22:25 1023 30.21 852 25.16 9.3 48.7 39 -4 24.9
22:30 1023 30.21 852 25.16 8.6 47.5 42 -3.7 25.4
22:35 1023 30.21 852 25.16 7.8 46 46 -3.3 26.1
22:40 1023 30.21 852 25.16 7 44.6 47 -3.5 25.7
22:45 1023 30.21 852 25.16 6.9 44.4 45 -4.3 24.3
22:50 1023 30.21 852 25.16 7.1 44.7 44 -4.5 24
22:55 1023 30.21 852 25.16 7 44.6 46 -3.9 25
23:00 1023 30.21 852 25.16 6.6 43.8 47 -4 24.8
23:05 1023 30.21 852 25.16 6.5 43.7 47 -3.9 24.9
23:10 1023 30.21 852 25.16 6.4 43.6 47 -4 24.9
23:15 1023 30.21 852 25.16 6.3 43.3 49 -3.7 25.3
23:20 1023 30.21 852 25.16 6 42.7 50 -3.7 25.4
23:25 1023 30.21 852 25.16 5.8 42.5 51 -3.6 25.5
23:30 1023 30.21 852 25.16 5.8 42.5 50 -3.7 25.3
23:35 1023 30.21 852 25.16 5.8 42.4 51 -3.7 25.4
23:40 1023 30.21 853 25.19 5.5 41.9 51 -3.8 25.1
23:45 1023 30.21 853 25.19 5.4 41.8 50 -4.1 24.7
23:50 1023 30.21 853 25.19 5.6 42 49 -4.2 24.4
23:55 1024 30.24 853 25.19 5.5 42 49 -4.2 24.4
24:00 1024 30.24 853 25.19 5.6 42.2 49 -4.3 24.3